createdAt,value
2023-04-29T00:02:31.202Z,12.62
2023-04-29T00:05:29.276Z,12.62
2023-04-29T00:08:39.646Z,12.62
2023-04-29T00:11:48.242Z,12.60
2023-04-29T00:14:56.066Z,12.63
2023-04-29T00:18:06.983Z,12.62
2023-04-29T00:21:15.484Z,12.62
2023-04-29T00:24:23.856Z,12.62
2023-04-29T00:27:33.182Z,12.62
2023-04-29T00:30:40.893Z,12.60
2023-04-29T00:33:48.645Z,12.57
2023-04-29T00:36:57.226Z,12.54
2023-04-29T00:40:06.427Z,12.49
2023-04-29T00:43:14.245Z,12.44
2023-04-29T00:46:22.083Z,12.39
2023-04-29T00:49:31.258Z,12.33
2023-04-29T00:52:39.192Z,12.31
2023-04-29T00:55:46.999Z,12.30
2023-04-29T00:58:56.084Z,12.27
2023-04-29T01:02:03.995Z,12.27
2023-04-29T01:05:11.786Z,12.23
2023-04-29T01:08:20.962Z,12.20
2023-04-29T01:11:29.023Z,12.16
2023-04-29T01:14:36.941Z,12.12
2023-04-29T01:17:44.823Z,12.11
2023-04-29T01:20:53.997Z,12.06
2023-04-29T01:24:01.894Z,12.05
2023-04-29T01:27:10.049Z,12.04
2023-04-29T01:30:19.275Z,12.04
2023-04-29T01:33:26.964Z,11.99
2023-04-29T01:36:34.655Z,12.01
2023-04-29T01:39:43.719Z,11.96
2023-04-29T01:42:51.674Z,11.90
2023-04-29T01:45:59.413Z,11.89
2023-04-29T01:49:08.585Z,11.85
2023-04-29T01:52:16.310Z,11.80
2023-04-29T01:55:24.085Z,11.80
2023-04-29T01:58:33.494Z,11.78
2023-04-29T02:01:41.218Z,11.77
2023-04-29T02:04:48.970Z,11.75
2023-04-29T02:07:56.690Z,11.72
2023-04-29T02:11:05.765Z,11.72
2023-04-29T02:14:13.465Z,11.71
2023-04-29T02:17:21.476Z,11.70
2023-04-29T02:20:30.755Z,11.71
2023-04-29T02:23:38.610Z,11.68
2023-04-29T02:26:46.377Z,11.65
2023-04-29T02:29:55.675Z,11.64
2023-04-29T02:33:03.877Z,11.64
2023-04-29T02:36:12.483Z,11.61
2023-04-29T02:39:21.502Z,11.57
2023-04-29T02:42:29.187Z,11.57
2023-04-29T02:45:36.942Z,11.57
2023-04-29T02:48:44.768Z,11.56
2023-04-29T02:51:54.016Z,11.54
2023-04-29T02:55:01.827Z,11.47
2023-04-29T02:58:09.515Z,11.44
2023-04-29T03:01:18.709Z,11.43
2023-04-29T03:04:26.615Z,11.43
2023-04-29T03:07:34.563Z,11.41
2023-04-29T03:10:43.731Z,11.38
2023-04-29T03:13:51.615Z,11.38
2023-04-29T03:16:59.444Z,11.35
2023-04-29T03:20:09.467Z,11.32
2023-04-29T03:23:17.322Z,11.32
2023-04-29T03:26:26.052Z,11.31
2023-04-29T03:29:33.849Z,11.29
2023-04-29T03:32:43.168Z,11.28
2023-04-29T03:35:50.901Z,11.25
2023-04-29T03:38:58.820Z,11.20
2023-04-29T03:42:08.012Z,11.19
2023-04-29T03:45:16.587Z,11.17
2023-04-29T03:48:24.225Z,11.14
2023-04-29T03:51:33.445Z,11.13
2023-04-29T03:54:41.166Z,11.10
2023-04-29T03:57:48.818Z,11.03
2023-04-29T04:00:58.127Z,11.06
2023-04-29T04:04:05.956Z,11.06
2023-04-29T04:07:13.667Z,11.03
2023-04-29T04:10:22.841Z,11.01
2023-04-29T04:13:30.621Z,11.01
2023-04-29T04:16:38.447Z,11.01
2023-04-29T04:19:46.401Z,10.95
2023-04-29T04:22:55.599Z,10.92
2023-04-29T04:26:03.563Z,10.89
2023-04-29T04:29:11.266Z,10.80
2023-04-29T04:32:20.556Z,10.77
2023-04-29T04:35:28.317Z,10.81
2023-04-29T04:38:36.060Z,10.78
2023-04-29T04:41:45.265Z,10.80
2023-04-29T04:44:53.239Z,10.68
2023-04-29T04:48:01.155Z,10.71
2023-04-29T04:51:10.300Z,10.70
2023-04-29T04:54:18.302Z,10.62
2023-04-29T04:57:26.513Z,10.68
2023-04-29T05:00:34.247Z,10.65
2023-04-29T05:03:43.839Z,10.68
2023-04-29T05:06:51.776Z,10.70
2023-04-29T05:09:59.485Z,10.66
2023-04-29T05:13:08.698Z,10.63
2023-04-29T05:16:16.910Z,10.62
2023-04-29T05:19:24.688Z,10.62
2023-04-29T05:22:33.886Z,10.60
2023-04-29T05:25:41.876Z,10.51
2023-04-29T05:28:50.869Z,10.44
2023-04-29T05:32:00.384Z,10.36
2023-04-29T05:35:08.142Z,10.42
2023-04-29T05:38:16.179Z,10.37
2023-04-29T05:41:25.558Z,10.34
2023-04-29T05:44:33.735Z,10.32
2023-04-29T05:47:41.507Z,10.34
2023-04-29T05:50:49.186Z,10.32
2023-04-29T05:53:58.522Z,10.24
2023-04-29T05:57:06.107Z,10.21
2023-04-29T06:00:15.459Z,10.17
2023-04-29T06:03:14.912Z,10.21
2023-04-29T06:06:22.710Z,10.19
2023-04-29T06:09:30.761Z,10.15
2023-04-29T06:12:40.042Z,10.17
2023-04-29T06:15:48.091Z,10.09
2023-04-29T06:18:57.543Z,10.09
2023-04-29T06:22:07.521Z,10.14
2023-04-29T06:25:15.497Z,10.21
2023-04-29T06:28:23.445Z,10.19
2023-04-29T06:31:31.166Z,10.21
2023-04-29T06:34:40.444Z,10.25
2023-04-29T06:37:48.191Z,10.19
2023-04-29T06:40:56.083Z,10.24
2023-04-29T06:44:05.472Z,10.21
2023-04-29T06:47:13.441Z,10.21
2023-04-29T06:50:21.505Z,10.25
2023-04-29T06:53:30.667Z,10.22
2023-04-29T06:56:38.723Z,10.25
2023-04-29T06:59:46.880Z,10.26
2023-04-29T07:02:56.105Z,10.30
2023-04-29T07:06:03.788Z,10.24
2023-04-29T07:09:11.545Z,10.36
2023-04-29T07:12:20.428Z,10.30
2023-04-29T07:15:29.532Z,10.24
2023-04-29T07:18:37.989Z,10.32
2023-04-29T07:21:45.767Z,10.39
2023-04-29T07:24:55.170Z,10.33
2023-04-29T07:28:02.912Z,10.24
2023-04-29T07:31:11.053Z,10.26
2023-04-29T07:34:20.741Z,10.34
2023-04-29T07:37:28.518Z,10.34
2023-04-29T07:40:36.333Z,10.47
2023-04-29T07:43:45.464Z,10.70
2023-04-29T07:46:53.354Z,10.62
2023-04-29T07:50:00.994Z,10.65
2023-04-29T07:53:10.188Z,10.80
2023-04-29T07:56:17.891Z,10.77
2023-04-29T07:59:25.563Z,10.66
2023-04-29T08:02:33.931Z,10.60
2023-04-29T08:05:43.660Z,10.62
2023-04-29T08:08:51.324Z,10.77
2023-04-29T08:11:59.074Z,10.91
2023-04-29T08:15:09.744Z,11.06
2023-04-29T08:18:17.899Z,11.29
2023-04-29T08:21:25.675Z,11.62
2023-04-29T08:24:34.707Z,11.53
2023-04-29T08:27:42.551Z,11.70
2023-04-29T08:30:50.367Z,11.80
2023-04-29T08:33:59.519Z,12.01
2023-04-29T08:37:07.232Z,12.20
2023-04-29T08:40:15.111Z,12.30
2023-04-29T08:43:22.848Z,12.16
2023-04-29T08:46:32.075Z,12.11
2023-04-29T08:49:39.743Z,12.09
2023-04-29T08:52:47.441Z,12.24
2023-04-29T08:55:56.740Z,12.44
2023-04-29T08:59:04.509Z,12.67
2023-04-29T09:02:13.311Z,13.18
2023-04-29T09:05:22.895Z,13.46
2023-04-29T09:08:30.516Z,13.55
2023-04-29T09:11:39.113Z,13.61
2023-04-29T09:14:49.154Z,13.74
2023-04-29T09:17:56.883Z,13.70
2023-04-29T09:21:05.411Z,13.71
2023-04-29T09:24:14.106Z,13.79
2023-04-29T09:27:23.284Z,13.70
2023-04-29T09:30:31.836Z,13.94
2023-04-29T09:33:39.880Z,13.99
2023-04-29T09:36:49.379Z,14.01
2023-04-29T09:39:57.860Z,14.06
2023-04-29T09:43:05.846Z,13.95
2023-04-29T09:46:15.360Z,13.88
2023-04-29T09:49:23.937Z,13.95
2023-04-29T09:52:31.971Z,14.10
2023-04-29T09:55:41.582Z,14.34
2023-04-29T09:58:49.705Z,14.67
2023-04-29T10:01:58.473Z,15.21
2023-04-29T10:05:08.154Z,15.31
2023-04-29T10:08:16.106Z,15.35
2023-04-29T10:11:24.672Z,15.31
2023-04-29T10:14:32.325Z,15.06
2023-04-29T10:17:42.161Z,14.75
2023-04-29T10:20:50.677Z,15.02
2023-04-29T10:23:58.479Z,15.28
2023-04-29T10:27:08.334Z,15.38
2023-04-29T10:30:16.340Z,15.28
2023-04-29T10:33:24.975Z,15.02
2023-04-29T10:36:34.400Z,14.78
2023-04-29T10:39:42.729Z,14.72
2023-04-29T10:42:50.504Z,14.68
2023-04-29T10:46:00.623Z,14.57
2023-04-29T10:49:08.374Z,14.42
2023-04-29T10:52:17.024Z,14.17
2023-04-29T10:55:25.123Z,14.06
2023-04-29T10:58:34.230Z,13.95
2023-04-29T11:01:42.880Z,13.89
2023-04-29T11:04:50.925Z,13.94
2023-04-29T11:08:00.464Z,14.10
2023-04-29T11:11:08.963Z,14.28
2023-04-29T11:14:17.146Z,14.53
2023-04-29T11:17:28.347Z,14.81
2023-04-29T11:20:36.854Z,15.09
2023-04-29T11:23:45.026Z,15.19
2023-04-29T11:26:54.497Z,15.19
2023-04-29T11:30:02.778Z,15.26
2023-04-29T11:33:10.651Z,15.19
2023-04-29T11:36:20.141Z,15.21
2023-04-29T11:39:28.280Z,15.43
2023-04-29T11:42:36.029Z,15.76
2023-04-29T11:45:44.237Z,15.79
2023-04-29T11:48:53.842Z,15.56
2023-04-29T11:52:02.003Z,15.13
2023-04-29T11:55:10.425Z,14.93
2023-04-29T11:58:20.010Z,15.03
2023-04-29T12:01:28.263Z,15.19
2023-04-29T12:04:37.100Z,15.19
2023-04-29T12:07:46.672Z,15.35
2023-04-29T12:10:54.874Z,15.26
2023-04-29T12:14:03.344Z,15.20
2023-04-29T12:17:12.841Z,15.02
2023-04-29T12:20:21.779Z,14.91
2023-04-29T12:23:29.582Z,14.80
2023-04-29T12:26:38.145Z,14.65
2023-04-29T12:29:48.036Z,14.67
2023-04-29T12:32:55.880Z,14.87
2023-04-29T12:36:04.487Z,14.95
2023-04-29T12:39:14.397Z,14.99
2023-04-29T12:42:22.153Z,15.01
2023-04-29T12:45:30.759Z,14.87
2023-04-29T12:48:41.514Z,14.91
2023-04-29T12:51:49.623Z,15.02
2023-04-29T12:54:58.210Z,15.27
2023-04-29T12:58:07.765Z,15.42
2023-04-29T13:01:18.423Z,15.51
2023-04-29T13:04:16.205Z,15.79
2023-04-29T13:07:26.019Z,16.03
2023-04-29T13:10:34.492Z,16.12
2023-04-29T13:13:43.148Z,15.84
2023-04-29T13:16:51.500Z,15.82
2023-04-29T13:20:00.995Z,15.86
2023-04-29T13:23:09.134Z,15.86
2023-04-29T13:26:17.570Z,16.03
2023-04-29T13:29:27.307Z,16.27
2023-04-29T13:32:43.980Z,16.55
2023-04-29T13:35:41.371Z,16.38
2023-04-29T13:38:55.074Z,15.96
2023-04-29T13:41:58.344Z,15.89
2023-04-29T13:44:56.936Z,15.89
2023-04-29T13:48:20.103Z,15.99
2023-04-29T13:51:34.515Z,16.09
2023-04-29T13:58:02.790Z,15.99
2023-04-29T14:03:25.030Z,16.07
2023-04-29T14:06:33.272Z,16.04
2023-04-29T14:09:43.399Z,15.79
2023-04-29T14:12:51.902Z,15.67
2023-04-29T14:16:00.235Z,15.74
2023-04-29T14:19:10.041Z,15.76
2023-04-29T14:22:18.250Z,15.63
2023-04-29T14:25:28.488Z,15.60
2023-04-29T14:28:27.790Z,15.49
2023-04-29T14:31:36.837Z,15.39
2023-04-29T14:34:45.271Z,15.24
2023-04-29T14:37:53.340Z,15.21
2023-04-29T14:41:03.845Z,15.12
2023-04-29T14:44:12.279Z,14.99
2023-04-29T14:47:20.768Z,15.01
2023-04-29T14:50:30.600Z,14.94
2023-04-29T14:53:38.977Z,14.81
2023-04-29T14:56:47.783Z,14.80
2023-04-29T14:59:58.014Z,14.84
2023-04-29T15:03:06.475Z,14.91
2023-04-29T15:06:15.539Z,15.05
2023-04-29T15:09:25.974Z,14.98
2023-04-29T15:12:34.322Z,14.99
2023-04-29T15:15:42.985Z,15.01
2023-04-29T15:18:52.239Z,14.98
2023-04-29T15:22:02.579Z,14.88
2023-04-29T15:25:10.913Z,14.84
2023-04-29T15:28:19.946Z,14.78
2023-04-29T15:31:30.820Z,14.78
2023-04-29T15:34:39.653Z,14.90
2023-04-29T15:37:48.014Z,14.87
2023-04-29T15:40:57.901Z,14.91
2023-04-29T15:44:06.010Z,14.94
2023-04-29T15:47:15.489Z,15.08
2023-04-29T15:50:25.590Z,15.17
2023-04-29T15:53:34.683Z,15.17
2023-04-29T15:56:43.064Z,15.15
2023-04-29T15:59:53.469Z,15.19
2023-04-29T16:03:02.577Z,15.33
2023-04-29T16:06:11.187Z,15.28
2023-04-29T16:09:19.534Z,15.28
2023-04-29T16:12:29.440Z,15.45
2023-04-29T16:15:38.129Z,15.70
2023-04-29T16:18:46.164Z,15.70
2023-04-29T16:21:56.414Z,15.67
2023-04-29T16:25:05.097Z,15.67
2023-04-29T16:28:05.911Z,15.68
2023-04-29T16:28:49.151Z,15.72
2023-04-29T16:31:58.833Z,15.60
2023-04-29T16:35:08.488Z,15.46
2023-04-29T16:38:16.960Z,15.23
2023-04-29T16:41:26.790Z,15.02
2023-04-29T16:44:36.003Z,14.84
2023-04-29T16:47:44.402Z,14.75
2023-04-29T16:50:54.727Z,14.78
2023-04-29T16:54:03.062Z,14.75
2023-04-29T16:57:12.119Z,14.67
2023-04-29T17:00:20.700Z,14.60
2023-04-29T17:03:30.653Z,14.47
2023-04-29T17:06:40.106Z,14.43
2023-04-29T17:09:48.525Z,14.43
2023-04-29T17:12:59.170Z,14.43
2023-04-29T17:16:07.786Z,14.50
2023-04-29T17:19:16.646Z,14.60
2023-04-29T17:22:26.849Z,14.52
2023-04-29T17:25:35.153Z,14.35
2023-04-29T17:28:43.663Z,14.20
2023-04-29T17:31:53.880Z,14.13
2023-04-29T17:35:02.908Z,14.02
2023-04-29T17:38:11.725Z,13.94
2023-04-29T17:41:21.416Z,13.80
2023-04-29T17:44:30.701Z,13.73
2023-04-29T17:47:38.989Z,13.62
2023-04-29T17:50:48.267Z,13.54
2023-04-29T17:53:58.548Z,13.46
2023-04-29T17:57:07.319Z,13.36
2023-04-29T18:00:16.067Z,13.22
2023-04-29T18:03:26.601Z,13.14
2023-04-29T18:06:35.743Z,13.02
2023-04-29T18:09:44.622Z,12.89
2023-04-29T18:12:54.839Z,12.81
2023-04-29T18:16:03.542Z,12.69
2023-04-29T18:19:12.849Z,12.60
2023-04-29T18:22:23.190Z,12.42
2023-04-29T18:25:31.701Z,12.29
2023-04-29T18:28:40.112Z,12.20
2023-04-29T18:31:48.845Z,12.02
2023-04-29T18:34:58.358Z,11.85
2023-04-29T18:38:07.150Z,11.74
2023-04-29T18:38:50.532Z,11.72
2023-04-29T18:41:59.590Z,11.52
2023-04-29T18:45:00.475Z,11.44
2023-04-29T18:48:09.170Z,11.24
2023-04-29T18:51:17.776Z,11.14
2023-04-29T18:54:27.478Z,11.17
2023-04-29T18:57:35.967Z,11.28
2023-04-29T19:00:44.589Z,11.20
2023-04-29T19:03:55.336Z,11.06
2023-04-29T19:07:04.009Z,10.91
2023-04-29T19:10:12.441Z,10.71
2023-04-29T19:13:22.327Z,10.52
2023-04-29T19:16:31.291Z,10.33
2023-04-29T19:19:39.828Z,10.28
2023-04-29T19:22:49.156Z,10.19
2023-04-29T19:25:58.841Z,10.21
2023-04-29T19:29:07.264Z,10.18
2023-04-29T19:32:16.576Z,10.42
2023-04-29T19:35:26.305Z,10.53
2023-04-29T19:38:34.640Z,10.52
2023-04-29T19:41:43.472Z,10.47
2023-04-29T19:44:53.361Z,10.37
2023-04-29T19:48:02.351Z,10.36
2023-04-29T19:51:10.536Z,10.33
2023-04-29T19:54:11.100Z,10.21
2023-04-29T19:57:20.430Z,10.04
2023-04-29T20:00:29.483Z,9.93
2023-04-29T20:03:37.794Z,9.89
2023-04-29T20:06:48.240Z,9.81
2023-04-29T20:09:57.130Z,9.66
2023-04-29T20:13:05.734Z,9.71
2023-04-29T20:16:15.989Z,9.73
2023-04-29T20:19:24.285Z,9.81
2023-04-29T20:22:33.023Z,9.91
2023-04-29T20:25:43.831Z,9.85
2023-04-29T20:28:52.696Z,9.79
2023-04-29T20:32:01.654Z,9.68
2023-04-29T20:35:03.478Z,9.68
2023-04-29T20:38:13.158Z,9.70
2023-04-29T20:41:21.306Z,9.73
2023-04-29T20:44:31.390Z,9.68
2023-04-29T20:47:40.521Z,9.63
2023-04-29T20:50:49.461Z,9.53
2023-04-29T20:53:58.464Z,9.50
2023-04-29T20:57:08.655Z,9.49
2023-04-29T21:00:19.411Z,9.48
2023-04-29T21:03:27.975Z,9.45
2023-04-29T21:06:38.074Z,9.42
2023-04-29T21:09:46.969Z,9.43
2023-04-29T21:12:55.330Z,9.42
2023-04-29T21:16:05.134Z,9.35
2023-04-29T21:19:13.956Z,9.27
2023-04-29T21:22:22.793Z,9.20
2023-04-29T21:25:31.946Z,9.13
2023-04-29T21:28:40.383Z,9.05
2023-04-29T21:31:48.619Z,9.02
2023-04-29T21:34:57.219Z,8.96
2023-04-29T21:38:07.792Z,8.86
2023-04-29T21:41:16.175Z,8.78
2023-04-29T21:44:24.618Z,8.73
2023-04-29T21:47:34.552Z,8.68
2023-04-29T21:50:43.436Z,8.58
2023-04-29T21:53:52.418Z,8.54
2023-04-29T21:57:02.448Z,8.48
2023-04-29T22:00:10.648Z,8.37
2023-04-29T22:03:20.168Z,8.32
2023-04-29T22:06:29.949Z,8.25
2023-04-29T22:09:38.494Z,8.15
2023-04-29T22:12:47.038Z,8.15
2023-04-29T22:15:57.657Z,8.11
2023-04-29T22:19:05.955Z,7.96
2023-04-29T22:22:14.824Z,7.90
2023-04-29T22:25:23.618Z,7.75
2023-04-29T22:28:33.553Z,7.58
2023-04-29T22:31:42.617Z,7.53
2023-04-29T22:34:50.479Z,7.52
2023-04-29T22:38:00.545Z,7.49
2023-04-29T22:41:09.000Z,7.49
2023-04-29T22:44:17.964Z,7.49
2023-04-29T22:47:27.713Z,7.47
2023-04-29T22:50:36.538Z,7.42
2023-04-29T22:53:44.938Z,7.35
2023-04-29T22:56:55.341Z,7.37
2023-04-29T23:00:04.050Z,7.35
2023-04-29T23:03:12.435Z,7.32
2023-04-29T23:06:21.553Z,7.29
2023-04-29T23:09:31.633Z,7.24
2023-04-29T23:12:40.565Z,7.23
2023-04-29T23:15:49.480Z,7.19
2023-04-29T23:19:00.203Z,7.13
2023-04-29T23:22:08.630Z,6.99
2023-04-29T23:25:17.802Z,6.98
2023-04-29T23:28:27.771Z,6.97
2023-04-29T23:31:36.681Z,6.94
2023-04-29T23:34:46.149Z,6.84
2023-04-29T23:37:55.837Z,6.89
2023-04-29T23:41:04.888Z,6.90
2023-04-29T23:44:13.730Z,6.90
2023-04-29T23:47:24.344Z,6.83
2023-04-29T23:50:32.607Z,6.73
2023-04-29T23:53:42.337Z,6.76
2023-04-29T23:56:50.519Z,6.72
